Time;durP1;ratioP1;P1;durP2;ratioP2;P2;SDS_P1;SDS_P2;PMS_P1;PMS_P2;Temp;Humidity;BMP_temperature;BMP_pressure;BME280_temperature;BME280_humidity;BME280_pressure;Samples;Min_cycle;Max_cycle;Signal;HPM_P1;HPM_P2
2023/08/19 00:00:08;;;;;;;7.18;4.35;;;;;;;;;;5073602;28;20570;-45
2023/08/19 00:03:01;;;;;;;6.68;4.57;;;;;;;;;;5073277;28;20219;-45
2023/08/19 00:05:28;;;;;;;6.28;4.65;;;;;;;;;;5073340;28;20290;-46
2023/08/19 00:07:55;;;;;;;7.38;4.78;;;;;;;;;;5073576;28;20231;-45
2023/08/19 00:10:22;;;;;;;9.10;4.88;;;;;;;;;;5073756;28;20235;-44
2023/08/19 00:12:49;;;;;;;7.93;4.65;;;;;;;;;;5073230;28;20207;-47
2023/08/19 00:15:17;;;;;;;9.35;4.78;;;;;;;;;;5073322;28;20199;-45
2023/08/19 00:17:44;;;;;;;5.97;4.40;;;;;;;;;;5073288;28;20294;-45
2023/08/19 00:20:11;;;;;;;10.18;4.40;;;;;;;;;;5073344;28;20207;-46
2023/08/19 00:22:38;;;;;;;12.68;4.45;;;;;;;;;;5073373;28;20596;-45
2023/08/19 00:25:06;;;;;;;8.88;4.47;;;;;;;;;;5073556;28;20199;-46
2023/08/19 00:27:33;;;;;;;6.65;4.97;;;;;;;;;;5073300;28;20758;-45
2023/08/19 00:30:01;;;;;;;7.53;4.75;;;;;;;;;;5071883;28;20664;-46
2023/08/19 00:32:28;;;;;;;9.55;5.22;;;;;;;;;;5073197;28;20226;-44
2023/08/19 00:34:56;;;;;;;7.25;5.10;;;;;;;;;;5072153;28;20204;-44
2023/08/19 00:37:23;;;;;;;7.15;5.25;;;;;;;;;;5072116;28;20237;-44
2023/08/19 00:39:50;;;;;;;6.82;4.57;;;;;;;;;;5073229;28;20214;-45
2023/08/19 00:42:17;;;;;;;5.80;4.63;;;;;;;;;;5073001;28;20257;-45
2023/08/19 00:44:45;;;;;;;8.35;4.60;;;;;;;;;;5072842;28;20276;-44
2023/08/19 00:47:12;;;;;;;7.05;4.88;;;;;;;;;;5071948;28;20199;-45
2023/08/19 00:49:40;;;;;;;7.25;5.10;;;;;;;;;;5071679;28;20203;-45
2023/08/19 00:52:08;;;;;;;9.20;5.00;;;;;;;;;;5071705;28;20552;-45
2023/08/19 00:54:35;;;;;;;7.45;5.03;;;;;;;;;;5072973;28;20207;-45
2023/08/19 00:57:02;;;;;;;8.55;5.13;;;;;;;;;;5072963;28;20253;-45
2023/08/19 00:59:29;;;;;;;7.28;4.90;;;;;;;;;;5072689;28;20203;-45
2023/08/19 01:01:59;;;;;;;6.25;4.72;;;;;;;;;;5073183;28;20238;-45
2023/08/19 01:04:26;;;;;;;9.55;4.60;;;;;;;;;;5072851;28;20578;-45
2023/08/19 01:07:28;;;;;;;9.15;5.05;;;;;;;;;;5072971;28;20208;-46
2023/08/19 01:10:07;;;;;;;7.57;4.25;;;;;;;;;;5071592;28;20223;-45
2023/08/19 01:12:40;;;;;;;6.70;4.60;;;;;;;;;;5072585;28;20229;-45
2023/08/19 01:15:19;;;;;;;10.30;4.63;;;;;;;;;;5071879;28;20204;-45
2023/08/19 01:17:50;;;;;;;7.53;4.88;;;;;;;;;;5071778;28;20210;-45
2023/08/19 01:20:18;;;;;;;6.25;4.80;;;;;;;;;;5075780;28;20195;-46
2023/08/19 01:23:05;;;;;;;8.93;4.85;;;;;;;;;;5075138;28;20199;-45
2023/08/19 01:25:33;;;;;;;7.28;4.88;;;;;;;;;;5075010;28;20655;-45
2023/08/19 01:28:03;;;;;;;5.50;4.50;;;;;;;;;;5075284;28;20206;-47
2023/08/19 01:30:33;;;;;;;7.90;4.70;;;;;;;;;;5076298;28;20199;-46
2023/08/19 01:33:03;;;;;;;9.13;5.07;;;;;;;;;;5076226;28;20264;-45
2023/08/19 01:35:36;;;;;;;9.45;4.65;;;;;;;;;;5058324;28;20211;-45
2023/08/19 01:38:12;;;;;;;6.15;4.25;;;;;;;;;;5076416;28;20203;-46
2023/08/19 01:40:40;;;;;;;8.70;4.78;;;;;;;;;;5074679;28;20199;-45
2023/08/19 01:43:10;;;;;;;9.40;4.60;;;;;;;;;;5075806;28;20226;-45
2023/08/19 01:45:38;;;;;;;8.98;4.35;;;;;;;;;;5074596;28;20576;-45
2023/08/19 01:48:06;;;;;;;7.10;4.47;;;;;;;;;;5074687;28;20652;-47
2023/08/19 01:50:33;;;;;;;5.05;4.03;;;;;;;;;;5075579;28;20229;-45
2023/08/19 01:53:00;;;;;;;7.53;4.43;;;;;;;;;;5074398;28;20210;-46
2023/08/19 01:55:28;;;;;;;6.45;4.35;;;;;;;;;;5075738;28;20257;-45
2023/08/19 01:57:56;;;;;;;8.18;4.25;;;;;;;;;;5074319;28;20291;-45
2023/08/19 02:00:23;;;;;;;5.85;4.15;;;;;;;;;;5074622;28;20199;-45
2023/08/19 02:02:50;;;;;;;6.75;4.30;;;;;;;;;;5075792;28;20207;-45
2023/08/19 02:05:17;;;;;;;6.18;4.78;;;;;;;;;;5075819;28;20199;-45
2023/08/19 02:07:44;;;;;;;13.52;4.78;;;;;;;;;;5090252;28;20207;-45
2023/08/19 02:10:12;;;;;;;6.20;4.53;;;;;;;;;;5074503;28;20231;-44
2023/08/19 02:12:39;;;;;;;6.10;4.30;;;;;;;;;;5073988;28;20219;-45
2023/08/19 02:15:07;;;;;;;5.45;4.10;;;;;;;;;;5074518;28;20236;-46
2023/08/19 02:17:34;;;;;;;6.63;4.10;;;;;;;;;;5074066;28;20200;-45
2023/08/19 02:20:03;;;;;;;7.90;4.25;;;;;;;;;;5075227;28;20199;-45
2023/08/19 02:22:30;;;;;;;9.05;4.90;;;;;;;;;;5075068;28;20206;-46
2023/08/19 02:24:57;;;;;;;7.13;4.10;;;;;;;;;;5073944;28;20227;-46
2023/08/19 02:27:25;;;;;;;6.07;4.32;;;;;;;;;;5075256;28;20550;-45
2023/08/19 02:29:52;;;;;;;11.07;4.28;;;;;;;;;;5073581;28;20195;-44
2023/08/19 02:32:19;;;;;;;9.70;4.13;;;;;;;;;;5074894;28;20211;-46
2023/08/19 02:34:47;;;;;;;5.93;3.67;;;;;;;;;;5073703;28;20207;-45
2023/08/19 02:37:14;;;;;;;8.18;4.60;;;;;;;;;;5074015;28;20206;-45
2023/08/19 02:39:41;;;;;;;5.22;4.07;;;;;;;;;;5074504;28;20199;-44
2023/08/19 02:42:11;;;;;;;9.02;5.00;;;;;;;;;;5074626;28;20290;-45
2023/08/19 02:44:38;;;;;;;6.50;4.32;;;;;;;;;;5074385;28;20239;-46
2023/08/19 02:47:05;;;;;;;7.40;4.18;;;;;;;;;;5073314;28;20286;-46
2023/08/19 02:49:33;;;;;;;8.30;4.60;;;;;;;;;;5073101;28;20652;-45
2023/08/19 02:51:59;;;;;;;8.57;4.30;;;;;;;;;;5074403;28;20287;-46
2023/08/19 02:54:27;;;;;;;9.35;4.78;;;;;;;;;;5074370;28;20567;-46
2023/08/19 02:56:54;;;;;;;6.50;4.78;;;;;;;;;;5073070;28;20722;-45
2023/08/19 02:59:21;;;;;;;9.85;4.50;;;;;;;;;;5073988;28;20203;-46
2023/08/19 03:01:48;;;;;;;6.68;4.80;;;;;;;;;;5074052;28;20196;-45
2023/08/19 03:04:15;;;;;;;9.52;4.75;;;;;;;;;;5073781;28;20608;-46
2023/08/19 03:06:42;;;;;;;11.93;4.88;;;;;;;;;;5073929;28;20207;-46
2023/08/19 03:09:10;;;;;;;8.98;4.20;;;;;;;;;;5073882;28;20235;-46
2023/08/19 03:11:37;;;;;;;11.07;4.55;;;;;;;;;;5072897;28;20627;-45
2023/08/19 03:14:04;;;;;;;8.50;4.75;;;;;;;;;;5074015;28;20208;-45
2023/08/19 03:16:31;;;;;;;7.90;4.50;;;;;;;;;;5072659;28;20242;-46
2023/08/19 03:18:59;;;;;;;8.07;4.22;;;;;;;;;;5072500;28;20199;-45
2023/08/19 03:21:26;;;;;;;5.93;4.28;;;;;;;;;;5073562;28;20269;-45
2023/08/19 03:23:53;;;;;;;10.48;4.85;;;;;;;;;;5072654;28;20227;-45
2023/08/19 03:26:22;;;;;;;7.78;5.20;;;;;;;;;;5072373;28;20199;-45
2023/08/19 03:28:49;;;;;;;7.53;3.83;;;;;;;;;;5072319;28;20729;-45
2023/08/19 03:31:16;;;;;;;8.68;4.97;;;;;;;;;;5073472;28;20288;-46
2023/08/19 03:33:44;;;;;;;8.35;4.72;;;;;;;;;;5072142;28;20668;-45
2023/08/19 03:36:12;;;;;;;6.10;4.40;;;;;;;;;;5056161;28;20257;-46
2023/08/19 03:38:39;;;;;;;6.15;4.38;;;;;;;;;;5072426;28;20199;-45
2023/08/19 03:41:06;;;;;;;7.22;4.70;;;;;;;;;;5071936;28;20203;-45
2023/08/19 03:43:34;;;;;;;7.20;4.03;;;;;;;;;;5071071;28;20203;-45
2023/08/19 03:46:01;;;;;;;10.00;5.00;;;;;;;;;;5052105;28;20227;-45
2023/08/19 03:48:28;;;;;;;7.70;4.60;;;;;;;;;;5066771;28;20213;-45
2023/08/19 03:50:55;;;;;;;6.07;4.40;;;;;;;;;;5052054;28;20208;-46
2023/08/19 03:53:22;;;;;;;10.73;4.78;;;;;;;;;;5050887;28;20204;-45
2023/08/19 03:55:49;;;;;;;10.38;4.75;;;;;;;;;;5052143;28;20191;-45
2023/08/19 03:58:16;;;;;;;13.75;4.53;;;;;;;;;;5052070;28;20211;-45
2023/08/19 04:00:45;;;;;;;12.02;5.47;;;;;;;;;;5058985;28;20298;-45
2023/08/19 04:03:14;;;;;;;15.43;5.07;;;;;;;;;;5060005;28;20219;-45
2023/08/19 04:05:41;;;;;;;14.07;5.38;;;;;;;;;;5053192;28;20314;-45
2023/08/19 04:08:08;;;;;;;10.32;4.90;;;;;;;;;;5063888;28;20199;-45
2023/08/19 04:10:35;;;;;;;6.85;4.97;;;;;;;;;;5072269;28;20704;-45
2023/08/19 04:13:03;;;;;;;7.57;4.88;;;;;;;;;;5072377;28;20207;-46
2023/08/19 04:15:31;;;;;;;12.10;4.40;;;;;;;;;;5073232;28;20321;-45
2023/08/19 04:17:59;;;;;;;8.95;4.35;;;;;;;;;;5072238;28;20200;-45
2023/08/19 04:20:26;;;;;;;7.85;4.20;;;;;;;;;;5072224;28;20203;-45
2023/08/19 04:22:53;;;;;;;8.30;4.57;;;;;;;;;;5072074;28;20203;-45
2023/08/19 04:25:20;;;;;;;7.25;4.25;;;;;;;;;;5073229;28;20230;-45
2023/08/19 04:27:48;;;;;;;9.00;4.32;;;;;;;;;;5072005;28;20607;-45
2023/08/19 04:30:15;;;;;;;7.50;4.30;;;;;;;;;;5072149;28;20200;-45
2023/08/19 04:32:42;;;;;;;6.32;4.70;;;;;;;;;;5071855;28;20660;-45
2023/08/19 04:35:11;;;;;;;6.40;4.68;;;;;;;;;;5072315;28;20539;-45
2023/08/19 04:37:40;;;;;;;8.57;4.68;;;;;;;;;;5072060;28;20222;-45
2023/08/19 04:40:09;;;;;;;6.80;4.65;;;;;;;;;;5073035;28;20573;-44
2023/08/19 04:42:39;;;;;;;7.43;4.28;;;;;;;;;;5071737;28;20199;-46
2023/08/19 04:45:09;;;;;;;8.27;5.00;;;;;;;;;;5088642;28;20262;-45
2023/08/19 04:47:42;;;;;;;6.88;4.63;;;;;;;;;;5088736;28;20199;-44
2023/08/19 04:50:09;;;;;;;5.43;4.20;;;;;;;;;;5088529;28;20221;-44
2023/08/19 04:52:37;;;;;;;6.60;4.38;;;;;;;;;;5072043;28;20211;-44
2023/08/19 04:55:08;;;;;;;8.98;5.10;;;;;;;;;;5091300;28;20293;-44
2023/08/19 04:57:36;;;;;;;6.65;4.35;;;;;;;;;;5075678;28;20207;-44
2023/08/19 05:00:03;;;;;;;12.02;4.30;;;;;;;;;;5075801;28;20234;-45
2023/08/19 05:02:31;;;;;;;12.15;4.55;;;;;;;;;;5076702;28;20195;-45
2023/08/19 05:04:58;;;;;;;6.28;4.18;;;;;;;;;;5076812;28;20230;-45
2023/08/19 05:07:26;;;;;;;5.55;4.05;;;;;;;;;;5068475;28;20226;-45
2023/08/19 05:09:53;;;;;;;5.32;3.90;;;;;;;;;;5056421;28;20236;-44
2023/08/19 05:12:23;;;;;;;8.63;4.10;;;;;;;;;;5067850;28;20199;-45
2023/08/19 05:14:51;;;;;;;7.10;4.20;;;;;;;;;;5103799;28;20543;-45
2023/08/19 05:17:19;;;;;;;5.45;3.65;;;;;;;;;;5087761;28;20207;-45
2023/08/19 05:19:46;;;;;;;6.72;3.60;;;;;;;;;;5075016;28;20682;-46
2023/08/19 05:22:13;;;;;;;5.45;4.00;;;;;;;;;;5075448;28;20207;-46
2023/08/19 05:24:41;;;;;;;5.95;3.92;;;;;;;;;;5075079;28;20304;-45
2023/08/19 05:27:09;;;;;;;9.77;4.05;;;;;;;;;;5075131;28;20203;-45
2023/08/19 05:29:36;;;;;;;6.25;3.72;;;;;;;;;;5074161;28;20218;-45
2023/08/19 05:32:04;;;;;;;5.82;4.20;;;;;;;;;;5075818;28;20199;-48
2023/08/19 05:34:31;;;;;;;9.63;4.20;;;;;;;;;;5075376;28;20204;-48
2023/08/19 05:36:59;;;;;;;8.90;3.90;;;;;;;;;;5075716;28;20195;-46
2023/08/19 05:39:26;;;;;;;8.02;3.58;;;;;;;;;;5070838;28;20195;-47
2023/08/19 05:41:53;;;;;;;7.38;4.00;;;;;;;;;;5061812;28;20227;-45
2023/08/19 05:44:20;;;;;;;7.40;4.10;;;;;;;;;;5074944;28;20317;-46
2023/08/19 05:46:48;;;;;;;4.63;3.35;;;;;;;;;;5072731;28;20268;-45
2023/08/19 05:49:15;;;;;;;6.93;4.05;;;;;;;;;;5065254;28;20705;-46
2023/08/19 05:51:42;;;;;;;6.25;3.90;;;;;;;;;;5055368;28;20708;-45
2023/08/19 05:54:09;;;;;;;8.40;3.90;;;;;;;;;;5075074;28;20223;-45
2023/08/19 05:56:36;;;;;;;5.70;3.38;;;;;;;;;;5074792;28;20231;-46
2023/08/19 05:59:03;;;;;;;10.05;3.90;;;;;;;;;;5074760;28;20744;-46
2023/08/19 06:01:31;;;;;;;5.80;3.75;;;;;;;;;;5075291;28;20220;-46
2023/08/19 06:03:58;;;;;;;9.60;3.70;;;;;;;;;;5074780;28;20239;-46
2023/08/19 06:06:26;;;;;;;6.43;3.97;;;;;;;;;;5074392;28;20223;-45
2023/08/19 06:08:53;;;;;;;5.80;3.75;;;;;;;;;;5074458;28;20243;-46
2023/08/19 06:11:21;;;;;;;5.50;3.30;;;;;;;;;;5074349;28;20220;-47
2023/08/19 06:13:48;;;;;;;5.57;3.45;;;;;;;;;;5074425;28;20219;-46
2023/08/19 06:16:15;;;;;;;4.47;3.38;;;;;;;;;;5065876;28;20211;-46
2023/08/19 06:18:42;;;;;;;5.88;3.75;;;;;;;;;;5058618;28;20230;-47
2023/08/19 06:21:11;;;;;;;4.70;3.22;;;;;;;;;;5073054;28;20230;-46
2023/08/19 06:23:38;;;;;;;6.78;3.42;;;;;;;;;;5074295;28;20699;-45
2023/08/19 06:26:05;;;;;;;9.52;3.90;;;;;;;;;;5073189;28;20249;-47
2023/08/19 06:28:32;;;;;;;6.95;3.60;;;;;;;;;;5072643;28;20224;-46
2023/08/19 06:31:00;;;;;;;7.47;3.63;;;;;;;;;;5058182;28;20230;-46
2023/08/19 06:33:27;;;;;;;5.53;3.60;;;;;;;;;;5054599;28;20315;-46
2023/08/19 06:35:57;;;;;;;6.75;3.78;;;;;;;;;;5066323;28;20219;-46
2023/08/19 06:38:27;;;;;;;16.90;4.03;;;;;;;;;;5071471;28;20226;-46
2023/08/19 06:41:00;;;;;;;6.78;3.33;;;;;;;;;;5068599;28;20223;-49
2023/08/19 06:43:27;;;;;;;15.85;6.43;;;;;;;;;;5074450;28;20227;-48
2023/08/19 06:45:55;;;;;;;8.43;4.95;;;;;;;;;;5073483;28;20707;-47
2023/08/19 06:48:24;;;;;;;12.00;5.25;;;;;;;;;;5073211;28;20703;-47
2023/08/19 06:50:52;;;;;;;8.82;3.80;;;;;;;;;;5074446;28;20206;-49
2023/08/19 06:53:20;;;;;;;9.85;4.03;;;;;;;;;;5062042;28;20562;-48
2023/08/19 06:56:11;;;;;;;6.72;3.97;;;;;;;;;;5074050;28;20257;-48
2023/08/19 06:58:41;;;;;;;11.15;4.00;;;;;;;;;;5073526;28;20203;-47
2023/08/19 07:01:19;;;;;;;6.03;3.80;;;;;;;;;;5054240;28;20196;-47
2023/08/19 07:03:47;;;;;;;5.70;3.67;;;;;;;;;;5063800;28;20187;-48
2023/08/19 07:06:16;;;;;;;10.80;3.58;;;;;;;;;;5072580;28;20224;-48
2023/08/19 07:08:43;;;;;;;4.63;2.95;;;;;;;;;;5073164;28;20187;-47
2023/08/19 07:11:11;;;;;;;7.85;3.40;;;;;;;;;;5073937;28;20191;-47
2023/08/19 07:13:39;;;;;;;7.43;3.67;;;;;;;;;;5073351;28;20640;-48
2023/08/19 07:16:07;;;;;;;11.27;3.83;;;;;;;;;;5054328;28;20212;-48
2023/08/19 07:18:39;;;;;;;11.27;3.90;;;;;;;;;;5062176;28;20718;-49
2023/08/19 07:21:14;;;;;;;9.65;3.58;;;;;;;;;;5073592;28;20559;-48
2023/08/19 07:23:44;;;;;;;7.35;3.67;;;;;;;;;;5063710;28;20183;-49
2023/08/19 07:26:12;;;;;;;7.10;3.63;;;;;;;;;;5058863;28;20232;-48
2023/08/19 07:28:39;;;;;;;4.63;3.58;;;;;;;;;;5070722;28;20218;-52
2023/08/19 07:31:09;;;;;;;9.55;3.75;;;;;;;;;;5072557;28;20215;-50
2023/08/19 07:33:36;;;;;;;7.18;3.80;;;;;;;;;;5068552;28;20621;-49
2023/08/19 07:36:04;;;;;;;5.35;3.55;;;;;;;;;;5072123;28;20215;-49
2023/08/19 07:38:31;;;;;;;10.43;3.88;;;;;;;;;;5068049;28;20219;-50
2023/08/19 07:40:58;;;;;;;4.05;3.40;;;;;;;;;;5071647;28;20231;-50
2023/08/19 07:43:25;;;;;;;6.97;3.45;;;;;;;;;;5066156;28;20689;-48
2023/08/19 07:45:52;;;;;;;5.80;3.70;;;;;;;;;;5062022;28;20231;-48
2023/08/19 07:48:20;;;;;;;9.57;3.42;;;;;;;;;;5064173;28;20220;-49
2023/08/19 07:50:47;;;;;;;7.68;3.92;;;;;;;;;;5051856;28;20247;-49
2023/08/19 07:53:14;;;;;;;5.53;3.72;;;;;;;;;;5055881;28;20546;-50
2023/08/19 07:55:42;;;;;;;8.52;3.83;;;;;;;;;;5071783;28;20215;-47
2023/08/19 07:58:09;;;;;;;8.88;3.88;;;;;;;;;;5068662;28;20212;-48
2023/08/19 08:00:37;;;;;;;7.65;3.60;;;;;;;;;;5050877;28;20219;-47
2023/08/19 08:03:06;;;;;;;8.95;3.50;;;;;;;;;;5053345;28;20208;-48
2023/08/19 08:05:33;;;;;;;6.95;3.72;;;;;;;;;;5071951;28;20623;-47
2023/08/19 08:08:01;;;;;;;6.18;3.42;;;;;;;;;;5072492;28;20249;-49
2023/08/19 08:10:28;;;;;;;10.48;4.18;;;;;;;;;;5072614;28;20235;-48
2023/08/19 08:12:55;;;;;;;12.38;3.83;;;;;;;;;;5072784;28;20207;-47
2023/08/19 08:15:22;;;;;;;5.85;3.97;;;;;;;;;;5061862;28;20565;-47
2023/08/19 08:17:50;;;;;;;5.78;3.75;;;;;;;;;;5052024;28;20200;-47
2023/08/19 08:20:17;;;;;;;4.35;3.20;;;;;;;;;;5053181;28;20208;-47
2023/08/19 08:22:44;;;;;;;8.57;3.60;;;;;;;;;;5051497;28;20657;-47
2023/08/19 08:25:12;;;;;;;5.65;3.85;;;;;;;;;;5052849;28;20219;-48
2023/08/19 08:27:39;;;;;;;7.75;3.60;;;;;;;;;;5053156;28;20560;-47
2023/08/19 08:30:07;;;;;;;5.15;3.20;;;;;;;;;;5056250;28;20203;-47
2023/08/19 08:32:34;;;;;;;7.13;3.75;;;;;;;;;;5057120;28;20195;-48
2023/08/19 08:35:01;;;;;;;6.38;3.42;;;;;;;;;;5057234;28;20207;-47
2023/08/19 08:37:29;;;;;;;9.00;3.88;;;;;;;;;;5054664;28;20257;-47
2023/08/19 08:39:56;;;;;;;4.20;3.40;;;;;;;;;;5056435;28;20200;-47
2023/08/19 08:42:23;;;;;;;4.70;3.50;;;;;;;;;;5056091;28;20208;-47
2023/08/19 08:44:50;;;;;;;5.85;3.70;;;;;;;;;;5056283;28;20207;-47
2023/08/19 08:47:19;;;;;;;9.00;3.47;;;;;;;;;;5071942;28;20200;-47
2023/08/19 08:49:47;;;;;;;10.95;3.80;;;;;;;;;;5071744;28;20207;-47
2023/08/19 08:52:15;;;;;;;4.80;3.45;;;;;;;;;;5055553;28;20204;-47
2023/08/19 08:54:43;;;;;;;9.07;3.70;;;;;;;;;;5071259;28;20200;-48
2023/08/19 08:57:10;;;;;;;6.50;3.10;;;;;;;;;;5071984;28;20196;-47
2023/08/19 08:59:37;;;;;;;5.50;3.55;;;;;;;;;;5056409;28;20196;-47
2023/08/19 09:02:05;;;;;;;5.40;3.17;;;;;;;;;;5056411;28;20304;-48
2023/08/19 09:04:32;;;;;;;13.00;3.70;;;;;;;;;;5078664;28;20551;-46
2023/08/19 09:07:08;;;;;;;5.60;3.67;;;;;;;;;;5056264;28;20220;-47
2023/08/19 09:09:36;;;;;;;6.10;3.08;;;;;;;;;;5067151;28;20226;-47
2023/08/19 09:12:15;;;;;;;6.20;3.47;;;;;;;;;;5075091;28;20238;-47
2023/08/19 09:14:44;;;;;;;7.22;3.28;;;;;;;;;;5074578;28;20192;-47
2023/08/19 09:17:12;;;;;;;4.72;2.95;;;;;;;;;;5075859;28;20254;-48
2023/08/19 09:19:40;;;;;;;5.80;3.20;;;;;;;;;;5075274;28;20206;-49
2023/08/19 09:22:16;;;;;;;6.40;3.38;;;;;;;;;;5075799;28;20651;-47
2023/08/19 09:24:44;;;;;;;4.78;3.53;;;;;;;;;;5068431;28;20192;-47
2023/08/19 09:27:11;;;;;;;8.27;2.95;;;;;;;;;;5058334;28;20698;-47
2023/08/19 09:29:51;;;;;;;6.53;3.55;;;;;;;;;;5073516;28;20276;-47
2023/08/19 09:32:29;;;;;;;9.55;2.92;;;;;;;;;;5083176;28;20230;-50
2023/08/19 09:35:06;;;;;;;6.32;3.20;;;;;;;;;;5074961;28;20215;-47
2023/08/19 09:37:35;;;;;;;5.45;3.33;;;;;;;;;;5074275;28;20231;-47
2023/08/19 09:40:08;;;;;;;5.72;3.70;;;;;;;;;;5073485;28;20256;-46
2023/08/19 09:42:37;;;;;;;6.05;3.38;;;;;;;;;;5075708;28;20211;-45
2023/08/19 09:45:05;;;;;;;9.95;3.47;;;;;;;;;;5075076;28;20203;-46
2023/08/19 09:47:54;;;;;;;8.15;3.85;;;;;;;;;;5071996;28;20195;-46
2023/08/19 09:50:22;;;;;;;5.65;3.13;;;;;;;;;;5073797;28;20223;-45
2023/08/19 09:52:57;;;;;;;7.07;3.38;;;;;;;;;;5073740;28;20290;-45
2023/08/19 09:55:25;;;;;;;4.45;3.25;;;;;;;;;;5073064;28;20289;-45
2023/08/19 09:57:53;;;;;;;6.90;3.55;;;;;;;;;;5074732;28;20209;-45
2023/08/19 10:00:21;;;;;;;5.50;3.10;;;;;;;;;;5074563;28;20577;-45
2023/08/19 10:02:49;;;;;;;13.63;3.55;;;;;;;;;;5075201;28;20199;-45
2023/08/19 10:05:16;;;;;;;6.25;3.65;;;;;;;;;;5075107;28;20203;-45
2023/08/19 10:07:53;;;;;;;3.95;2.70;;;;;;;;;;5075241;28;20621;-46
2023/08/19 10:10:21;;;;;;;3.40;2.88;;;;;;;;;;5074238;28;20238;-45
2023/08/19 10:12:50;;;;;;;3.10;2.78;;;;;;;;;;5073990;28;20721;-46
2023/08/19 10:15:18;;;;;;;4.57;2.97;;;;;;;;;;5075111;28;20226;-45
2023/08/19 10:17:53;;;;;;;6.32;2.95;;;;;;;;;;5075288;28;20286;-46
2023/08/19 10:20:22;;;;;;;4.32;2.97;;;;;;;;;;5074324;28;20187;-46
2023/08/19 10:22:52;;;;;;;4.55;2.80;;;;;;;;;;5074148;28;20286;-45
2023/08/19 10:25:20;;;;;;;4.63;2.70;;;;;;;;;;5075398;28;20212;-45
2023/08/19 10:27:47;;;;;;;3.05;2.75;;;;;;;;;;5074955;28;20286;-46
2023/08/19 10:30:35;;;;;;;7.13;3.22;;;;;;;;;;5075094;28;20199;-46
2023/08/19 10:33:05;;;;;;;5.97;2.85;;;;;;;;;;5075540;28;20203;-46
2023/08/19 10:35:58;;;;;;;7.22;3.10;;;;;;;;;;5064678;28;20215;-45
2023/08/19 10:38:40;;;;;;;7.57;3.00;;;;;;;;;;5061903;28;20227;-46
2023/08/19 10:41:20;;;;;;;5.38;3.38;;;;;;;;;;5075751;28;20222;-47
2023/08/19 10:43:53;;;;;;;7.65;3.10;;;;;;;;;;5072135;28;20583;-48
2023/08/19 10:46:41;;;;;;;4.85;2.85;;;;;;;;;;5072444;28;20676;-49
2023/08/19 10:49:12;;;;;;;9.63;3.05;;;;;;;;;;5069687;28;20214;-48
2023/08/19 10:52:05;;;;;;;4.88;3.08;;;;;;;;;;5081444;28;20220;-47
2023/08/19 10:54:40;;;;;;;4.90;2.80;;;;;;;;;;5063694;28;20253;-48
2023/08/19 10:57:08;;;;;;;6.53;3.03;;;;;;;;;;5092602;28;20228;-46
2023/08/19 10:59:36;;;;;;;4.78;3.47;;;;;;;;;;5078925;28;20242;-48
2023/08/19 11:02:08;;;;;;;5.95;3.00;;;;;;;;;;5072990;28;20223;-47
2023/08/19 11:04:43;;;;;;;5.07;2.75;;;;;;;;;;5065703;28;20212;-47
2023/08/19 11:07:11;;;;;;;4.00;3.30;;;;;;;;;;5065458;28;20230;-47
2023/08/19 11:09:41;;;;;;;5.55;3.90;;;;;;;;;;5072714;28;20231;-46
2023/08/19 11:12:09;;;;;;;6.40;3.47;;;;;;;;;;5073093;28;20711;-46
2023/08/19 11:14:37;;;;;;;7.35;3.03;;;;;;;;;;5066183;28;20254;-47
2023/08/19 11:17:05;;;;;;;5.47;3.30;;;;;;;;;;5052812;28;20228;-46
2023/08/19 11:19:32;;;;;;;9.05;3.15;;;;;;;;;;5054162;28;20222;-47
2023/08/19 11:22:00;;;;;;;5.10;2.80;;;;;;;;;;5065245;28;20223;-46
2023/08/19 11:24:30;;;;;;;4.47;3.22;;;;;;;;;;5057018;28;20261;-47
2023/08/19 11:26:58;;;;;;;13.70;3.58;;;;;;;;;;5072851;28;20249;-47
2023/08/19 11:29:26;;;;;;;7.15;3.25;;;;;;;;;;5072726;28;20239;-47
2023/08/19 11:31:53;;;;;;;5.05;3.03;;;;;;;;;;5072649;28;20254;-46
2023/08/19 11:34:20;;;;;;;6.00;3.47;;;;;;;;;;5074558;28;20278;-46
2023/08/19 11:36:48;;;;;;;4.50;3.42;;;;;;;;;;5053335;28;20203;-49
2023/08/19 11:39:15;;;;;;;7.07;3.40;;;;;;;;;;5066991;28;20234;-48
2023/08/19 11:41:42;;;;;;;8.90;3.72;;;;;;;;;;5072220;28;20586;-48
2023/08/19 11:44:09;;;;;;;4.40;2.97;;;;;;;;;;5068278;28;20219;-49
2023/08/19 11:46:36;;;;;;;8.38;3.13;;;;;;;;;;5076253;28;20695;-48
2023/08/19 11:49:07;;;;;;;4.60;2.85;;;;;;;;;;5069105;28;20732;-49
2023/08/19 11:51:38;;;;;;;3.58;3.00;;;;;;;;;;5067680;28;20268;-48
2023/08/19 11:54:08;;;;;;;3.60;2.97;;;;;;;;;;5074935;28;20304;-49
2023/08/19 11:56:52;;;;;;;4.03;3.20;;;;;;;;;;5071328;28;20219;-51
2023/08/19 11:59:30;;;;;;;10.18;3.40;;;;;;;;;;5071799;28;20334;-49
2023/08/19 12:02:05;;;;;;;8.02;3.33;;;;;;;;;;5067920;28;20220;-49
2023/08/19 12:04:35;;;;;;;6.75;3.13;;;;;;;;;;5058558;28;20221;-49
2023/08/19 12:07:05;;;;;;;9.23;3.45;;;;;;;;;;5072337;28;20235;-52
2023/08/19 12:09:33;;;;;;;5.70;3.17;;;;;;;;;;5068096;28;20235;-47
2023/08/19 12:12:10;;;;;;;4.93;3.83;;;;;;;;;;5070630;28;20271;-47
2023/08/19 12:14:38;;;;;;;4.03;2.90;;;;;;;;;;5070610;28;20214;-46
2023/08/19 12:17:07;;;;;;;4.63;3.45;;;;;;;;;;5071584;28;20275;-48
2023/08/19 12:19:37;;;;;;;6.10;3.30;;;;;;;;;;5068212;28;20223;-48
2023/08/19 12:22:05;;;;;;;6.32;4.10;;;;;;;;;;5051427;28;20219;-46
2023/08/19 12:24:32;;;;;;;4.00;3.33;;;;;;;;;;5069076;28;20238;-46
2023/08/19 12:26:59;;;;;;;5.22;3.17;;;;;;;;;;5072584;28;20226;-46
2023/08/19 12:29:27;;;;;;;4.90;3.15;;;;;;;;;;5072810;28;20233;-47
2023/08/19 12:31:54;;;;;;;9.55;3.75;;;;;;;;;;5072950;28;20204;-49
2023/08/19 12:34:22;;;;;;;10.70;3.00;;;;;;;;;;5083293;28;20213;-48
2023/08/19 12:36:49;;;;;;;4.65;3.33;;;;;;;;;;5052929;28;20571;-46
2023/08/19 12:39:17;;;;;;;6.20;3.30;;;;;;;;;;5055204;28;20291;-48
2023/08/19 12:41:46;;;;;;;6.22;3.60;;;;;;;;;;5069990;28;20208;-46
2023/08/19 12:44:13;;;;;;;8.07;3.92;;;;;;;;;;5078628;28;20643;-46
2023/08/19 12:46:42;;;;;;;9.95;3.85;;;;;;;;;;5071848;28;20254;-48
2023/08/19 12:49:09;;;;;;;3.67;2.92;;;;;;;;;;5071451;28;20203;-46
2023/08/19 12:51:37;;;;;;;5.68;3.67;;;;;;;;;;5071397;28;20491;-46
2023/08/19 12:54:04;;;;;;;6.30;3.60;;;;;;;;;;5071484;28;20721;-46
2023/08/19 12:56:32;;;;;;;3.72;3.25;;;;;;;;;;5071596;28;20211;-46
2023/08/19 12:58:59;;;;;;;7.72;3.40;;;;;;;;;;5059961;28;20266;-46
2023/08/19 13:01:26;;;;;;;8.88;3.60;;;;;;;;;;5053781;28;20204;-48
2023/08/19 13:03:53;;;;;;;3.88;3.28;;;;;;;;;;5052610;28;20204;-49
2023/08/19 13:06:21;;;;;;;6.10;3.35;;;;;;;;;;5052211;28;20273;-48
2023/08/19 13:08:48;;;;;;;4.85;3.58;;;;;;;;;;5051923;28;20590;-48
2023/08/19 13:11:15;;;;;;;7.22;3.67;;;;;;;;;;5054421;28;20556;-50
2023/08/19 13:13:42;;;;;;;7.78;3.30;;;;;;;;;;5067959;28;20196;-48
2023/08/19 13:16:10;;;;;;;4.20;3.40;;;;;;;;;;5075042;28;20203;-47
2023/08/19 13:18:36;;;;;;;20.20;6.38;;;;;;;;;;5075677;28;20198;-48
2023/08/19 13:21:04;;;;;;;4.10;3.15;;;;;;;;;;5076324;28;20199;-48
2023/08/19 13:23:31;;;;;;;4.40;3.03;;;;;;;;;;5068508;28;20715;-49
2023/08/19 13:25:58;;;;;;;9.27;3.55;;;;;;;;;;5075039;28;20224;-47
2023/08/19 13:28:25;;;;;;;5.53;3.33;;;;;;;;;;5074720;28;20304;-47
2023/08/19 13:30:55;;;;;;;5.88;4.28;;;;;;;;;;5062446;28;20231;-48
2023/08/19 13:33:22;;;;;;;5.18;3.65;;;;;;;;;;5074400;28;20659;-48
2023/08/19 13:35:50;;;;;;;5.00;3.13;;;;;;;;;;5062930;28;20765;-47
2023/08/19 13:38:17;;;;;;;8.60;3.63;;;;;;;;;;5061379;28;20219;-49
2023/08/19 13:40:44;;;;;;;3.67;3.05;;;;;;;;;;5075165;28;20215;-48
2023/08/19 13:43:11;;;;;;;6.93;3.60;;;;;;;;;;5089051;28;20222;-49
2023/08/19 13:45:39;;;;;;;5.30;3.75;;;;;;;;;;5074770;28;20227;-48
2023/08/19 13:48:06;;;;;;;5.93;3.78;;;;;;;;;;5073835;28;20227;-48
2023/08/19 13:50:43;;;;;;;10.02;3.22;;;;;;;;;;5074727;28;20223;-47
2023/08/19 13:53:10;;;;;;;7.70;3.50;;;;;;;;;;5073444;28;20277;-46
2023/08/19 13:55:37;;;;;;;9.05;5.35;;;;;;;;;;5074733;28;20219;-46
2023/08/19 13:58:04;;;;;;;8.02;3.42;;;;;;;;;;5073800;28;20298;-47
2023/08/19 14:00:32;;;;;;;5.32;2.88;;;;;;;;;;5074945;28;20227;-47
2023/08/19 14:02:59;;;;;;;7.68;3.53;;;;;;;;;;5074809;28;20227;-46
2023/08/19 14:05:28;;;;;;;6.25;3.30;;;;;;;;;;5074964;28;20215;-46
2023/08/19 14:07:55;;;;;;;7.10;2.80;;;;;;;;;;5074106;28;20253;-49
2023/08/19 14:10:22;;;;;;;3.97;3.20;;;;;;;;;;5074421;28;20238;-46
2023/08/19 14:12:50;;;;;;;3.92;2.60;;;;;;;;;;5073411;28;20215;-48
2023/08/19 14:15:17;;;;;;;11.95;3.20;;;;;;;;;;5074407;28;20231;-46
2023/08/19 14:17:45;;;;;;;4.47;3.00;;;;;;;;;;5074723;28;20223;-46
2023/08/19 14:20:12;;;;;;;5.03;3.05;;;;;;;;;;5074024;28;20700;-46
2023/08/19 14:22:40;;;;;;;5.18;2.95;;;;;;;;;;5074065;28;20726;-46
2023/08/19 14:25:10;;;;;;;4.53;3.03;;;;;;;;;;5074378;28;20227;-46
2023/08/19 14:27:38;;;;;;;5.30;2.83;;;;;;;;;;5073933;28;20719;-49
2023/08/19 14:30:06;;;;;;;3.97;2.90;;;;;;;;;;5074041;28;20230;-49
2023/08/19 14:32:33;;;;;;;6.68;3.17;;;;;;;;;;5074159;28;20219;-49
2023/08/19 14:35:00;;;;;;;5.70;2.70;;;;;;;;;;5073676;28;20740;-50
2023/08/19 14:37:28;;;;;;;3.63;2.78;;;;;;;;;;5066655;28;20220;-51
2023/08/19 14:39:55;;;;;;;5.25;3.20;;;;;;;;;;5062430;28;20224;-46
2023/08/19 14:42:22;;;;;;;5.90;3.10;;;;;;;;;;5053727;28;20220;-51
2023/08/19 14:44:50;;;;;;;6.70;2.63;;;;;;;;;;5059321;28;20610;-49
2023/08/19 14:47:17;;;;;;;6.20;2.70;;;;;;;;;;5064250;28;20233;-51
2023/08/19 14:49:45;;;;;;;8.32;3.15;;;;;;;;;;5076531;28;20241;-48